Time;durP1;ratioP1;P1;durP2;ratioP2;P2;SDS_P1;SDS_P2;PMS_P1;PMS_P2;Temp;Humidity;BMP_temperature;BMP_pressure;BME280_temperature;BME280_humidity;BME280_pressure;Samples;Min_cycle;Max_cycle;Signal;HPM_P1;HPM_P2
2021/12/12 00:00:50;;;;;;;0.00;0.00;;;8.80;89.30;;;;;;5055548;28;20484;-83
2021/12/12 00:03:33;;;;;;;0.00;0.00;;;8.70;89.30;;;;;;5057000;28;20052;-83
2021/12/12 00:06:03;;;;;;;0.00;0.00;;;8.70;89.30;;;;;;5057670;28;20049;-84
2021/12/12 00:08:30;;;;;;;0.00;0.00;;;8.70;89.30;;;;;;5057633;28;20250;-83
2021/12/12 00:11:00;;;;;;;0.00;0.00;;;8.70;89.40;;;;;;5057074;28;20029;-83
2021/12/12 00:13:38;;;;;;;0.00;0.00;;;8.70;89.50;;;;;;5057112;28;20032;-83
2021/12/12 00:16:05;;;;;;;0.00;0.00;;;8.70;89.80;;;;;;5057923;28;20056;-84
2021/12/12 00:18:31;;;;;;;0.03;0.03;;;8.80;89.70;;;;;;5057596;28;20025;-83
2021/12/12 00:20:57;;;;;;;0.00;0.00;;;8.80;89.70;;;;;;5056510;28;20025;-84
2021/12/12 00:23:24;;;;;;;0.00;0.00;;;8.80;89.50;;;;;;5056259;28;20029;-83
2021/12/12 00:25:55;;;;;;;0.00;0.00;;;8.80;88.90;;;;;;5058419;28;20078;-83
2021/12/12 00:28:22;;;;;;;0.00;0.00;;;8.80;88.90;;;;;;5057485;28;20021;-83
2021/12/12 00:30:55;;;;;;;0.00;0.00;;;8.90;89.20;;;;;;5056583;28;20074;-83
2021/12/12 00:33:22;;;;;;;0.00;0.00;;;8.90;88.90;;;;;;5056094;28;20020;-82
2021/12/12 00:35:49;;;;;;;0.00;0.00;;;9.00;88.80;;;;;;5055946;28;20033;-82
2021/12/12 00:38:22;;;;;;;0.00;0.00;;;9.00;88.30;;;;;;5057679;28;20491;-83
2021/12/12 00:40:51;;;;;;;0.10;0.00;;;9.00;88.70;;;;;;5057055;28;20020;-84
2021/12/12 00:43:26;;;;;;;0.00;0.00;;;9.00;88.60;;;;;;5056757;28;20064;-81
2021/12/12 00:45:54;;;;;;;0.00;0.00;;;9.10;87.70;;;;;;5055925;28;20021;-82
2021/12/12 00:48:22;;;;;;;0.00;0.00;;;9.00;87.00;;;;;;5056692;28;20051;-82
2021/12/12 00:50:48;;;;;;;0.00;0.00;;;9.00;86.80;;;;;;5056696;28;20021;-83
2021/12/12 00:53:14;;;;;;;0.05;0.05;;;8.90;86.60;;;;;;5057121;28;20541;-83
2021/12/12 00:55:43;;;;;;;0.00;0.00;;;8.90;86.90;;;;;;5055738;28;20364;-81
2021/12/12 00:58:11;;;;;;;0.00;0.00;;;8.80;87.00;;;;;;5055795;28;20174;-82
2021/12/12 01:00:44;;;;;;;0.00;0.00;;;8.80;86.80;;;;;;5055843;28;20036;-82
2021/12/12 01:03:11;;;;;;;0.00;0.00;;;8.80;86.90;;;;;;5056823;28;20029;-82
2021/12/12 01:05:38;;;;;;;0.00;0.00;;;8.80;87.10;;;;;;5055158;28;20122;-83
2021/12/12 01:08:07;;;;;;;0.00;0.00;;;8.80;87.00;;;;;;5055984;28;20039;-81
2021/12/12 01:10:53;;;;;;;0.00;0.00;;;8.70;86.70;;;;;;5055663;28;20027;-82
2021/12/12 01:13:19;;;;;;;0.00;0.00;;;8.70;86.60;;;;;;5055245;28;20534;-84
2021/12/12 01:15:55;;;;;;;0.00;0.00;;;8.60;86.80;;;;;;5055310;28;20052;-83
2021/12/12 01:18:36;;;;;;;0.00;0.00;;;8.60;86.70;;;;;;5056076;28;20025;-83
2021/12/12 01:21:25;;;;;;;0.00;0.00;;;8.60;87.10;;;;;;5056773;28;20059;-81
2021/12/12 01:23:59;;;;;;;0.00;0.00;;;8.70;87.50;;;;;;5056612;28;20094;-82
2021/12/12 01:26:28;;;;;;;0.00;0.00;;;8.70;87.20;;;;;;5038700;28;20020;-82
2021/12/12 01:28:55;;;;;;;0.00;0.00;;;8.70;87.00;;;;;;5055740;28;20056;-83
2021/12/12 01:31:28;;;;;;;0.00;0.00;;;8.80;86.50;;;;;;5055103;28;20025;-83
2021/12/12 01:33:59;;;;;;;0.00;0.00;;;8.80;86.20;;;;;;5053559;28;20036;-84
2021/12/12 01:36:44;;;;;;;0.00;0.00;;;8.80;86.10;;;;;;5055304;28;20033;-84
2021/12/12 01:39:12;;;;;;;0.00;0.00;;;8.70;86.10;;;;;;5055827;28;20033;-83
2021/12/12 01:41:46;;;;;;;0.00;0.00;;;8.70;86.20;;;;;;5055552;28;20029;-82
2021/12/12 01:44:18;;;;;;;0.00;0.00;;;8.70;86.20;;;;;;5055884;28;20036;-83
2021/12/12 01:46:59;;;;;;;0.00;0.00;;;8.70;86.10;;;;;;5055512;28;20055;-82
2021/12/12 01:49:28;;;;;;;0.10;0.08;;;8.60;87.00;;;;;;5054005;28;20060;-82
2021/12/12 01:51:56;;;;;;;0.10;0.10;;;8.60;86.10;;;;;;5055199;28;20107;-82
2021/12/12 01:54:30;;;;;;;0.05;0.00;;;8.60;85.90;;;;;;5055318;28;20500;-82
2021/12/12 01:56:59;;;;;;;0.00;0.00;;;8.60;86.00;;;;;;5054684;28;20029;-83
2021/12/12 01:59:31;;;;;;;0.00;0.00;;;8.60;86.60;;;;;;5056142;28;20092;-83
2021/12/12 02:02:04;;;;;;;0.00;0.00;;;8.60;86.50;;;;;;5055339;28;20021;-83
2021/12/12 02:04:43;;;;;;;0.00;0.00;;;8.70;86.40;;;;;;5055001;28;20061;-82
2021/12/12 02:07:13;;;;;;;0.00;0.00;;;8.70;86.20;;;;;;5054777;28;20029;-82
2021/12/12 02:09:39;;;;;;;0.00;0.00;;;8.70;86.00;;;;;;5054067;28;20025;-83
2021/12/12 02:12:06;;;;;;;0.00;0.00;;;8.70;85.70;;;;;;5054023;28;20025;-83
2021/12/12 02:14:36;;;;;;;0.00;0.00;;;8.70;85.70;;;;;;5054495;28;20033;-83
2021/12/12 02:17:13;;;;;;;0.00;0.00;;;8.70;85.90;;;;;;5054222;28;20029;-83
2021/12/12 02:19:54;;;;;;;0.00;0.00;;;8.60;85.70;;;;;;5054373;28;20029;-82
2021/12/12 02:22:36;;;;;;;0.00;0.00;;;8.70;86.40;;;;;;5053968;28;20112;-82
2021/12/12 02:36:04;;;;;;;0.00;0.00;;;8.40;84.80;;;;;;5058960;28;20036;-84
2021/12/12 02:38:32;;;;;;;0.00;0.00;;;8.40;85.30;;;;;;5058937;28;20108;-83
2021/12/12 02:41:09;;;;;;;0.20;0.10;;;8.30;86.20;;;;;;5058481;28;20388;-83
2021/12/12 02:43:39;;;;;;;0.10;0.10;;;8.40;85.90;;;;;;5059277;28;20029;-83
2021/12/12 02:46:06;;;;;;;0.20;0.15;;;8.40;86.20;;;;;;5062026;28;20100;-83
2021/12/12 02:48:39;;;;;;;0.30;0.30;;;8.40;85.70;;;;;;5060522;28;20075;-85
2021/12/12 02:51:09;;;;;;;0.20;0.20;;;8.40;85.60;;;;;;5059961;28;20031;-83
2021/12/12 02:53:54;;;;;;;0.30;0.30;;;8.30;85.40;;;;;;5059667;28;20029;-82
2021/12/12 02:56:28;;;;;;;0.00;0.00;;;8.20;85.40;;;;;;5057881;28;20028;-82
2021/12/12 02:58:54;;;;;;;0.00;0.00;;;8.20;85.40;;;;;;5058256;28;20040;-81
2021/12/12 03:01:28;;;;;;;0.25;0.00;;;8.10;85.70;;;;;;5058020;28;20258;-83
2021/12/12 03:03:55;;;;;;;0.10;0.10;;;8.10;85.70;;;;;;5060836;28;20112;-83
2021/12/12 03:06:24;;;;;;;0.08;0.00;;;8.10;85.90;;;;;;5060011;28;20101;-83
2021/12/12 03:08:54;;;;;;;0.00;0.00;;;8.10;86.10;;;;;;5058512;28;20053;-84
2021/12/12 03:11:20;;;;;;;0.00;0.00;;;8.00;86.10;;;;;;5059936;28;20052;-83
2021/12/12 03:13:46;;;;;;;0.00;0.00;;;8.10;86.10;;;;;;5057648;28;20489;-84
2021/12/12 03:16:12;;;;;;;0.00;0.00;;;8.00;85.80;;;;;;5057117;28;20483;-84
2021/12/12 03:18:42;;;;;;;0.00;0.00;;;8.00;86.00;;;;;;5056769;28;20377;-83
2021/12/12 03:21:16;;;;;;;0.00;0.00;;;8.00;86.70;;;;;;5056900;28;20025;-84
2021/12/12 03:23:46;;;;;;;0.00;0.00;;;8.00;86.40;;;;;;5057743;28;20040;-84
2021/12/12 03:26:13;;;;;;;0.00;0.00;;;8.10;86.30;;;;;;5058228;28;20025;-84
2021/12/12 03:28:42;;;;;;;0.00;0.00;;;8.10;85.70;;;;;;5057950;28;20029;-82
2021/12/12 03:31:19;;;;;;;0.00;0.00;;;8.10;85.80;;;;;;5058498;28;20025;-83
2021/12/12 03:33:45;;;;;;;0.00;0.00;;;8.10;85.90;;;;;;5058572;28;20078;-83
2021/12/12 03:36:13;;;;;;;0.10;0.10;;;8.10;85.60;;;;;;5056516;28;20025;-84
2021/12/12 03:38:46;;;;;;;0.00;0.00;;;8.10;85.70;;;;;;5057551;28;20377;-84
2021/12/12 03:41:17;;;;;;;0.08;0.08;;;8.10;85.10;;;;;;5057085;28;20078;-86
2021/12/12 03:43:45;;;;;;;0.00;0.00;;;8.00;85.30;;;;;;5057244;28;20165;-84
2021/12/12 03:46:11;;;;;;;0.00;0.00;;;8.00;85.40;;;;;;5055747;28;20033;-85
2021/12/12 03:48:41;;;;;;;0.13;0.13;;;7.90;85.70;;;;;;5056874;28;20031;-82
2021/12/12 03:51:08;;;;;;;0.35;0.10;;;7.90;85.50;;;;;;5057231;28;20530;-82
2021/12/12 03:53:36;;;;;;;0.10;0.05;;;7.90;86.00;;;;;;5057319;28;20036;-84
2021/12/12 03:56:03;;;;;;;0.20;0.20;;;7.80;85.90;;;;;;5056917;28;20063;-84
2021/12/12 03:58:29;;;;;;;0.13;0.13;;;7.80;86.20;;;;;;5057146;28;20024;-82
2021/12/12 04:01:06;;;;;;;0.03;0.03;;;7.90;86.50;;;;;;5057850;28;20052;-82
2021/12/12 04:03:32;;;;;;;0.20;0.20;;;7.90;86.00;;;;;;5057537;28;20036;-85
2021/12/12 04:06:02;;;;;;;0.00;0.00;;;7.90;85.60;;;;;;5057189;28;20068;-82
2021/12/12 04:08:33;;;;;;;0.00;0.00;;;7.90;85.70;;;;;;5056440;28;20107;-83
2021/12/12 04:10:59;;;;;;;0.10;0.10;;;7.90;85.90;;;;;;5056525;28;20064;-83
2021/12/12 04:13:25;;;;;;;0.20;0.10;;;7.90;85.40;;;;;;5056011;28;20060;-84
2021/12/12 04:15:56;;;;;;;0.00;0.00;;;7.90;85.70;;;;;;5057199;28;20029;-83
2021/12/12 04:18:24;;;;;;;0.90;0.90;;;7.90;86.40;;;;;;5056146;28;20036;-83
2021/12/12 04:20:50;;;;;;;0.30;0.30;;;8.00;85.90;;;;;;5056163;28;20112;-84
2021/12/12 04:23:21;;;;;;;0.50;0.20;;;8.00;85.10;;;;;;5056151;28;20049;-83
2021/12/12 04:25:48;;;;;;;0.57;0.03;;;7.90;84.70;;;;;;5055920;28;20033;-83
2021/12/12 04:28:14;;;;;;;0.47;0.47;;;7.90;84.70;;;;;;5055761;28;20033;-84
2021/12/12 04:30:40;;;;;;;0.00;0.00;;;7.80;84.60;;;;;;5055810;28;20032;-83
2021/12/12 04:33:06;;;;;;;0.00;0.00;;;7.70;84.50;;;;;;5054439;28;20028;-83
2021/12/12 04:35:33;;;;;;;0.55;0.32;;;7.70;84.90;;;;;;5056353;28;20036;-82
2021/12/12 04:38:01;;;;;;;0.00;0.00;;;7.60;85.10;;;;;;5056472;28;20035;-83
2021/12/12 04:40:29;;;;;;;0.20;0.20;;;7.60;85.30;;;;;;5056172;28;20167;-83
2021/12/12 04:42:57;;;;;;;0.45;0.45;;;7.70;85.30;;;;;;5056025;28;20056;-84
2021/12/12 04:45:47;;;;;;;0.10;0.10;;;7.60;84.50;;;;;;5055470;28;20072;-83
2021/12/12 04:51:57;;;;;;;0.00;0.00;;;7.40;84.00;;;;;;5053727;28;20150;-83
2021/12/12 04:54:32;;;;;;;0.00;0.00;;;7.40;84.20;;;;;;5055280;28;20029;-83
2021/12/12 04:57:07;;;;;;;0.00;0.00;;;7.30;84.70;;;;;;5055124;28;20020;-83
2021/12/12 04:59:44;;;;;;;0.20;0.10;;;7.20;84.90;;;;;;5055134;28;20036;-83
2021/12/12 05:02:17;;;;;;;0.00;0.00;;;7.20;85.00;;;;;;5055248;28;20029;-83
2021/12/12 05:05:08;;;;;;;0.10;0.10;;;7.20;85.30;;;;;;5055524;28;20041;-83
2021/12/12 05:07:41;;;;;;;0.08;0.08;;;7.20;85.30;;;;;;5056434;28;20074;-83
2021/12/12 05:10:21;;;;;;;0.50;0.50;;;7.10;84.80;;;;;;5055257;28;20025;-84
2021/12/12 05:12:56;;;;;;;0.20;0.20;;;7.10;85.10;;;;;;5055332;28;20032;-83
2021/12/12 05:15:31;;;;;;;0.00;0.00;;;7.10;85.10;;;;;;5055038;28;20036;-83
2021/12/12 05:18:30;;;;;;;0.00;0.00;;;7.10;85.50;;;;;;5054428;28;20169;-84
2021/12/12 05:21:07;;;;;;;0.20;0.20;;;7.10;85.30;;;;;;5045671;28;20028;-84
2021/12/12 05:23:34;;;;;;;0.00;0.00;;;7.00;84.80;;;;;;5055874;28;20066;-83
2021/12/12 05:26:04;;;;;;;0.00;0.00;;;7.00;84.80;;;;;;5055426;28;20048;-83
2021/12/12 05:28:41;;;;;;;0.00;0.00;;;6.90;85.10;;;;;;5055581;28;20025;-83
2021/12/12 05:31:09;;;;;;;0.00;0.00;;;6.90;85.40;;;;;;5055478;28;20047;-84
2021/12/12 05:33:35;;;;;;;0.00;0.00;;;6.90;85.90;;;;;;5055550;28;20040;-83
2021/12/12 05:36:01;;;;;;;0.00;0.00;;;7.00;85.80;;;;;;5054909;28;20025;-83
2021/12/12 05:38:29;;;;;;;0.00;0.00;;;7.00;85.00;;;;;;5054889;28;20021;-84
2021/12/12 05:40:55;;;;;;;0.00;0.00;;;7.00;85.00;;;;;;5054186;28;20035;-84
2021/12/12 05:43:21;;;;;;;0.20;0.20;;;6.90;85.10;;;;;;5055246;28;20082;-82
2021/12/12 05:45:48;;;;;;;0.35;0.35;;;7.00;85.10;;;;;;5055521;28;20025;-86
2021/12/12 05:48:15;;;;;;;0.00;0.00;;;7.00;85.20;;;;;;5055094;28;20535;-83
2021/12/12 05:50:44;;;;;;;0.03;0.03;;;6.90;85.00;;;;;;5054730;28;20025;-84
2021/12/12 05:53:11;;;;;;;0.00;0.00;;;7.00;85.30;;;;;;5053728;28;20116;-83
2021/12/12 05:55:38;;;;;;;0.30;0.30;;;7.00;85.30;;;;;;5055120;28;20113;-84
2021/12/12 05:58:07;;;;;;;1.40;1.35;;;7.00;85.00;;;;;;5054933;28;20052;-83
2021/12/12 06:00:39;;;;;;;0.40;0.40;;;7.00;84.10;;;;;;5055034;28;20479;-84
2021/12/12 06:03:16;;;;;;;1.38;1.30;;;6.90;83.60;;;;;;5054453;28;20021;-84
2021/12/12 06:05:41;;;;;;;0.13;0.10;;;6.80;84.00;;;;;;5056194;28;20049;-83
2021/12/12 06:08:08;;;;;;;0.52;0.47;;;6.70;84.90;;;;;;5054729;28;20059;-84
2021/12/12 06:10:37;;;;;;;0.32;0.32;;;6.70;85.60;;;;;;5055112;28;20029;-83
2021/12/12 06:13:05;;;;;;;1.50;1.45;;;6.80;85.50;;;;;;5054485;28;20056;-83
2021/12/12 06:15:32;;;;;;;0.28;0.28;;;6.80;84.60;;;;;;5054411;28;20457;-83
2021/12/12 06:17:59;;;;;;;0.80;0.75;;;6.70;84.20;;;;;;5054483;28;20017;-83
2021/12/12 06:20:27;;;;;;;0.60;0.60;;;6.60;84.50;;;;;;5054279;28;20031;-84
2021/12/12 06:22:54;;;;;;;0.52;0.30;;;6.60;84.70;;;;;;5053046;28;20024;-83
2021/12/12 06:25:20;;;;;;;1.55;1.52;;;6.60;84.40;;;;;;5053758;28;20032;-84
2021/12/12 06:27:46;;;;;;;0.50;0.50;;;6.50;84.70;;;;;;5054613;28;20025;-84
2021/12/12 06:30:18;;;;;;;0.55;0.43;;;6.50;85.00;;;;;;5052755;28;20121;-83
2021/12/12 06:32:45;;;;;;;0.95;0.43;;;6.40;84.70;;;;;;5054566;28;20037;-82
2021/12/12 06:35:11;;;;;;;2.00;1.90;;;6.40;85.10;;;;;;5054289;28;20029;-84
2021/12/12 06:37:37;;;;;;;1.27;1.27;;;6.40;85.00;;;;;;5053460;28;20029;-83
2021/12/12 06:40:06;;;;;;;2.28;1.13;;;6.40;85.10;;;;;;5054482;28;20039;-82
2021/12/12 06:42:33;;;;;;;1.90;1.25;;;6.30;84.80;;;;;;5056081;28;20076;-83
2021/12/12 06:45:00;;;;;;;2.35;2.13;;;6.20;84.60;;;;;;5055004;28;20044;-85
2021/12/12 06:47:27;;;;;;;2.53;1.35;;;6.10;84.50;;;;;;5055403;28;20028;-82
2021/12/12 06:49:53;;;;;;;2.80;2.65;;;6.10;85.30;;;;;;5055070;28;20031;-85
2021/12/12 06:52:20;;;;;;;1.25;0.85;;;6.10;85.90;;;;;;5054515;28;20029;-86
2021/12/12 06:54:47;;;;;;;1.05;0.70;;;6.00;86.50;;;;;;5054918;28;20035;-84
2021/12/12 06:57:16;;;;;;;1.80;1.70;;;6.00;85.90;;;;;;5054577;28;20033;-84
2021/12/12 06:59:43;;;;;;;1.00;1.00;;;6.00;86.00;;;;;;5054865;28;20101;-85
2021/12/12 07:02:10;;;;;;;1.45;0.75;;;6.10;86.00;;;;;;5054604;28;20064;-85
2021/12/12 07:04:37;;;;;;;0.65;0.52;;;6.10;85.70;;;;;;5054009;28;20079;-83
2021/12/12 07:07:06;;;;;;;0.70;0.70;;;6.10;85.80;;;;;;5053204;28;20110;-84
2021/12/12 07:09:35;;;;;;;0.93;0.93;;;6.10;85.70;;;;;;5053733;28;20059;-83
2021/12/12 07:12:05;;;;;;;0.20;0.20;;;6.10;85.40;;;;;;5052720;28;20029;-85
2021/12/12 07:14:33;;;;;;;0.50;0.50;;;6.00;85.00;;;;;;5056086;28;20029;-85
2021/12/12 07:16:59;;;;;;;0.20;0.20;;;6.00;85.40;;;;;;5057703;28;20075;-84
2021/12/12 07:20:13;;;;;;;0.65;0.10;;;6.00;85.70;;;;;;5056637;28;20029;-84
2021/12/12 07:22:41;;;;;;;0.57;0.57;;;6.00;85.60;;;;;;5057382;28;20108;-84
2021/12/12 07:25:08;;;;;;;0.70;0.30;;;5.90;85.40;;;;;;5057031;28;20029;-85
2021/12/12 07:27:34;;;;;;;0.40;0.40;;;5.90;85.40;;;;;;5056631;28;20112;-84
2021/12/12 07:30:01;;;;;;;1.63;1.52;;;5.90;86.00;;;;;;5055892;28;20057;-83
2021/12/12 07:32:28;;;;;;;1.65;0.45;;;5.90;86.10;;;;;;5055935;28;20025;-85
2021/12/12 07:34:54;;;;;;;0.43;0.43;;;5.90;85.90;;;;;;5057618;28;20433;-85
2021/12/12 07:37:21;;;;;;;1.23;0.77;;;5.90;86.10;;;;;;5057977;28;20033;-84
2021/12/12 07:39:48;;;;;;;1.65;0.40;;;6.00;86.10;;;;;;5057767;28;20025;-84
2021/12/12 07:42:17;;;;;;;0.75;0.75;;;6.00;86.30;;;;;;5055967;28;20032;-84
2021/12/12 07:44:44;;;;;;;0.95;0.90;;;6.00;86.30;;;;;;5057387;28;20021;-84
2021/12/12 07:47:11;;;;;;;0.10;0.10;;;6.10;86.50;;;;;;5057588;28;20061;-83
2021/12/12 07:49:42;;;;;;;1.55;0.68;;;6.10;86.20;;;;;;5056888;28;20361;-83
2021/12/12 07:52:12;;;;;;;0.60;0.40;;;6.10;85.90;;;;;;5057834;28;20021;-86
2021/12/12 07:54:38;;;;;;;1.35;0.73;;;6.10;85.00;;;;;;5057076;28;20090;-85
2021/12/12 07:57:05;;;;;;;1.42;1.40;;;6.10;85.40;;;;;;5055840;28;20044;-84
2021/12/12 07:59:33;;;;;;;1.75;0.50;;;6.00;85.60;;;;;;5058118;28;20021;-84
2021/12/12 08:02:00;;;;;;;2.10;2.00;;;6.00;85.40;;;;;;5057400;28;20075;-83
2021/12/12 08:04:31;;;;;;;1.83;1.73;;;5.90;85.70;;;;;;5057368;28;20411;-82
2021/12/12 08:07:00;;;;;;;0.30;0.30;;;5.90;85.90;;;;;;5056615;28;20426;-83
2021/12/12 08:09:27;;;;;;;0.10;0.10;;;6.00;86.30;;;;;;5057327;28;20080;-83
2021/12/12 08:11:53;;;;;;;0.47;0.30;;;6.00;86.60;;;;;;5057714;28;20449;-86
2021/12/12 08:14:23;;;;;;;0.60;0.60;;;6.10;86.30;;;;;;5057260;28;20072;-85
2021/12/12 08:16:51;;;;;;;0.40;0.40;;;6.20;85.80;;;;;;5055881;28;20032;-84
2021/12/12 08:19:18;;;;;;;0.90;0.90;;;6.10;85.70;;;;;;5058070;28;20060;-84
2021/12/12 08:21:46;;;;;;;0.82;0.82;;;6.20;85.80;;;;;;5055589;28;20048;-84
2021/12/12 08:24:13;;;;;;;0.40;0.20;;;6.30;85.30;;;;;;5057074;28;20056;-83
2021/12/12 08:26:47;;;;;;;0.10;0.10;;;6.30;85.00;;;;;;5057168;28;20069;-84
2021/12/12 08:29:14;;;;;;;0.00;0.00;;;6.40;85.20;;;;;;5057084;28;20098;-84
2021/12/12 08:31:41;;;;;;;0.65;0.65;;;6.40;85.30;;;;;;5056137;28;20037;-85
2021/12/12 08:34:11;;;;;;;0.00;0.00;;;6.50;83.80;;;;;;5055081;28;20052;-87
2021/12/12 08:36:41;;;;;;;0.63;0.63;;;6.40;84.10;;;;;;5055956;28;20033;-87
2021/12/12 08:39:09;;;;;;;0.50;0.30;;;6.40;84.20;;;;;;5056240;28;20457;-85
2021/12/12 08:41:36;;;;;;;0.45;0.22;;;6.50;84.30;;;;;;5056404;28;20029;-83
2021/12/12 08:44:03;;;;;;;1.65;1.55;;;6.60;84.60;;;;;;5055848;28;20051;-84
2021/12/12 08:46:30;;;;;;;0.30;0.30;;;6.70;84.10;;;;;;5054590;28;20061;-90
2021/12/12 08:48:56;;;;;;;0.38;0.38;;;6.70;83.70;;;;;;5054889;28;20025;-83
2021/12/12 08:51:32;;;;;;;0.73;0.73;;;6.80;83.70;;;;;;5056942;28;20032;-82
2021/12/12 08:54:13;;;;;;;0.98;0.63;;;6.80;82.80;;;;;;5060086;28;20036;-85
2021/12/12 08:56:46;;;;;;;0.77;0.52;;;6.80;82.90;;;;;;5057628;28;20028;-83
2021/12/12 08:59:25;;;;;;;0.63;0.35;;;6.80;82.90;;;;;;5058894;28;20503;-83
2021/12/12 09:01:56;;;;;;;0.70;0.70;;;6.80;83.00;;;;;;5057843;28;20377;-86
2021/12/12 09:04:23;;;;;;;0.50;0.50;;;6.80;82.60;;;;;;5057960;28;20032;-86
2021/12/12 09:07:44;;;;;;;0.40;0.40;;;6.90;82.50;;;;;;5055988;28;20028;-87
2021/12/12 09:10:13;;;;;;;1.00;1.00;;;6.90;81.90;;;;;;5019898;28;20029;-86
2021/12/12 09:13:06;;;;;;;0.55;0.30;;;6.90;81.50;;;;;;5036393;28;20083;-84
2021/12/12 09:15:55;;;;;;;0.52;0.52;;;6.90;81.80;;;;;;5046260;28;20105;-85
2021/12/12 09:18:28;;;;;;;1.58;1.48;;;6.80;81.00;;;;;;5056532;28;20366;-85
2021/12/12 09:21:11;;;;;;;0.30;0.30;;;6.90;81.00;;;;;;5058148;28;20028;-85
2021/12/12 09:23:45;;;;;;;1.25;1.25;;;6.90;80.70;;;;;;5057875;28;20064;-84
2021/12/12 09:26:25;;;;;;;1.40;1.38;;;6.80;80.10;;;;;;5055759;28;20380;-85
2021/12/12 09:29:09;;;;;;;1.30;0.30;;;6.80;79.90;;;;;;5054881;28;20021;-87
2021/12/12 09:31:49;;;;;;;0.10;0.10;;;6.70;80.50;;;;;;5055796;28;20029;-85
2021/12/12 09:34:38;;;;;;;0.20;0.20;;;6.70;80.40;;;;;;5055917;28;20054;-86
2021/12/12 09:37:21;;;;;;;0.40;0.40;;;6.70;80.00;;;;;;5055442;28;20017;-83
2021/12/12 09:40:06;;;;;;;0.00;0.00;;;6.60;80.30;;;;;;5055635;28;20021;-85
2021/12/12 09:42:53;;;;;;;0.55;0.55;;;6.70;80.60;;;;;;5054774;28;20064;-83
2021/12/12 09:45:47;;;;;;;0.00;0.00;;;6.60;80.10;;;;;;5055615;28;20047;-83
2021/12/12 09:52:04;;;;;;;0.00;0.00;;;6.70;80.10;;;;;;5035841;28;20065;-84
2021/12/12 09:54:46;;;;;;;0.03;0.03;;;6.70;79.60;;;;;;5056323;28;20079;-82
2021/12/12 09:57:33;;;;;;;0.40;0.10;;;6.60;79.60;;;;;;5057707;28;20041;-83
2021/12/12 10:00:18;;;;;;;0.00;0.00;;;6.60;80.10;;;;;;5058127;28;20025;-84
2021/12/12 10:03:00;;;;;;;0.10;0.10;;;6.60;80.20;;;;;;5058330;28;20025;-83
2021/12/12 10:05:56;;;;;;;0.00;0.00;;;6.60;79.50;;;;;;5057486;28;20519;-82
2021/12/12 10:08:44;;;;;;;0.00;0.00;;;6.60;79.40;;;;;;5058424;28;20021;-83
2021/12/12 10:11:36;;;;;;;0.00;0.00;;;6.50;78.80;;;;;;5058196;28;20124;-84
2021/12/12 10:14:23;;;;;;;0.00;0.00;;;6.30;79.20;;;;;;5057211;28;20491;-83
2021/12/12 10:16:56;;;;;;;0.20;0.10;;;6.30;79.90;;;;;;5057131;28;20052;-85
2021/12/12 10:19:33;;;;;;;0.17;0.10;;;6.30;80.20;;;;;;5056161;28;20057;-84
2021/12/12 10:22:12;;;;;;;0.10;0.10;;;6.40;80.20;;;;;;5055493;28;20033;-84
2021/12/12 10:24:54;;;;;;;0.10;0.10;;;6.30;79.80;;;;;;5056971;28;20021;-84
2021/12/12 10:27:41;;;;;;;0.63;0.38;;;6.30;79.80;;;;;;5058535;28;20024;-83
2021/12/12 10:30:14;;;;;;;0.20;0.20;;;6.40;79.90;;;;;;5057700;28;20029;-83
2021/12/12 10:33:14;;;;;;;0.20;0.20;;;6.30;79.60;;;;;;5057691;28;20044;-84
2021/12/12 10:35:51;;;;;;;0.65;0.65;;;6.40;79.60;;;;;;5057568;28;20028;-83
2021/12/12 10:38:53;;;;;;;0.10;0.10;;;6.40;79.40;;;;;;5056308;28;20081;-85
2021/12/12 10:42:05;;;;;;;0.47;0.20;;;6.40;79.20;;;;;;5061721;28;20131;-85
2021/12/12 10:44:46;;;;;;;0.70;0.70;;;6.40;79.50;;;;;;5050662;28;20045;-85
2021/12/12 10:47:12;;;;;;;0.30;0.22;;;6.40;78.90;;;;;;5056012;28;20044;-84
2021/12/12 10:50:12;;;;;;;0.00;0.00;;;6.40;79.20;;;;;;5062626;28;20025;-84
2021/12/12 10:53:01;;;;;;;0.00;0.00;;;6.40;78.90;;;;;;5065928;28;20061;-85
2021/12/12 10:55:47;;;;;;;0.00;0.00;;;6.40;78.60;;;;;;5065752;28;20032;-85
2021/12/12 10:58:18;;;;;;;0.10;0.10;;;6.40;77.90;;;;;;5065269;28;20104;-88
2021/12/12 11:00:51;;;;;;;0.00;0.00;;;6.40;77.40;;;;;;5065496;28;20469;-83
2021/12/12 11:03:27;;;;;;;0.00;0.00;;;6.30;77.90;;;;;;5064886;28;20037;-83
2021/12/12 11:06:16;;;;;;;0.00;0.00;;;6.30;78.50;;;;;;5064333;28;20065;-82
2021/12/12 11:09:07;;;;;;;0.00;0.00;;;6.20;78.10;;;;;;5060076;28;20094;-85
2021/12/12 11:11:58;;;;;;;0.00;0.00;;;6.20;78.10;;;;;;5064633;28;20048;-84
2021/12/12 11:14:30;;;;;;;0.20;0.20;;;6.20;78.70;;;;;;5061434;28;20045;-83
2021/12/12 11:17:22;;;;;;;0.00;0.00;;;6.20;78.80;;;;;;5058329;28;20021;-84
2021/12/12 11:20:03;;;;;;;0.00;0.00;;;6.20;78.30;;;;;;5061615;28;20028;-85
2021/12/12 11:22:51;;;;;;;0.38;0.20;;;6.20;78.20;;;;;;5058559;28;20364;-84
2021/12/12 11:25:56;;;;;;;0.32;0.32;;;6.10;78.20;;;;;;5058257;28;20029;-84
2021/12/12 11:28:35;;;;;;;0.10;0.10;;;6.00;78.20;;;;;;5058261;28;20025;-85
2021/12/12 11:31:13;;;;;;;0.15;0.15;;;5.90;78.30;;;;;;5057163;28;20109;-84
2021/12/12 11:33:42;;;;;;;0.10;0.10;;;5.90;78.70;;;;;;5057015;28;20048;-86
2021/12/12 11:36:13;;;;;;;0.00;0.00;;;5.90;78.50;;;;;;5055258;28;20112;-86
2021/12/12 11:39:09;;;;;;;0.00;0.00;;;5.80;78.90;;;;;;5057379;28;20017;-85
2021/12/12 11:42:00;;;;;;;0.30;0.03;;;5.80;78.60;;;;;;5057215;28;20113;-85
2021/12/12 11:44:36;;;;;;;0.00;0.00;;;5.80;78.40;;;;;;5055667;28;20094;-86
2021/12/12 11:47:37;;;;;;;0.00;0.00;;;5.60;78.20;;;;;;5056226;28;20036;-83
2021/12/12 11:50:14;;;;;;;0.00;0.00;;;5.60;78.70;;;;;;5057125;28;20052;-84
2021/12/12 11:52:55;;;;;;;1.08;0.20;;;5.60;79.40;;;;;;5056661;28;20031;-85
2021/12/12 11:55:38;;;;;;;0.10;0.10;;;5.60;79.50;;;;;;5056073;28;20083;-84
2021/12/12 11:58:37;;;;;;;0.10;0.10;;;5.60;79.30;;;;;;5056360;28;20058;-85
2021/12/12 12:01:16;;;;;;;0.10;0.10;;;5.70;79.60;;;;;;5056295;28;20054;-86
2021/12/12 12:03:51;;;;;;;0.57;0.57;;;5.70;79.50;;;;;;5055538;28;20113;-84
2021/12/12 12:06:28;;;;;;;1.25;0.77;;;5.80;79.30;;;;;;5055330;28;20052;-86
2021/12/12 12:09:12;;;;;;;0.52;0.10;;;5.80;79.20;;;;;;5056772;28;20115;-85
2021/12/12 12:11:58;;;;;;;0.00;0.00;;;5.80;79.60;;;;;;5056210;28;20032;-86
2021/12/12 12:14:45;;;;;;;0.00;0.00;;;5.90;79.40;;;;;;5055414;28;20476;-84
2021/12/12 12:17:35;;;;;;;0.00;0.00;;;5.90;79.30;;;;;;5055852;28;20021;-86
2021/12/12 12:20:16;;;;;;;1.45;0.63;;;6.00;79.10;;;;;;5056052;28;20037;-86
2021/12/12 12:23:06;;;;;;;0.00;0.00;;;5.90;78.70;;;;;;5058418;28;20370;-85
2021/12/12 12:28:42;;;;;;;0.00;0.00;;;5.90;78.40;;;;;;5056595;28;20064;-85
2021/12/12 12:31:33;;;;;;;0.00;0.00;;;5.80;78.50;;;;;;5054881;28;20021;-85
2021/12/12 12:34:17;;;;;;;0.00;0.00;;;5.80;78.70;;;;;;5055765;28;20063;-85
2021/12/12 12:37:07;;;;;;;0.00;0.00;;;5.70;78.70;;;;;;5056118;28;20032;-84
2021/12/12 12:40:10;;;;;;;0.00;0.00;;;5.70;78.50;;;;;;5054508;28;20021;-87
2021/12/12 12:43:18;;;;;;;0.00;0.00;;;5.70;78.00;;;;;;5055629;28;20108;-88
2021/12/12 12:46:21;;;;;;;0.00;0.00;;;5.70;78.10;;;;;;5055856;28;20044;-85
2021/12/12 12:49:08;;;;;;;0.00;0.00;;;5.70;78.40;;;;;;5055560;28;20036;-84
2021/12/12 12:52:03;;;;;;;0.00;0.00;;;5.70;78.50;;;;;;5055088;28;20029;-87
2021/12/12 12:54:47;;;;;;;;;;;5.70;78.70;;;;;;5056339;28;20088;-86
2021/12/12 12:57:27;;;;;;;0.00;0.00;;;5.80;78.60;;;;;;5055630;28;20013;-86
2021/12/12 13:00:08;;;;;;;0.00;0.00;;;5.70;78.50;;;;;;5054482;28;20384;-87
2021/12/12 13:02:49;;;;;;;0.05;0.05;;;5.70;78.30;;;;;;5056140;28;20059;-86
2021/12/12 13:05:54;;;;;;;0.38;0.10;;;5.60;78.70;;;;;;5054163;28;20386;-85
2021/12/12 13:08:51;;;;;;;0.10;0.10;;;5.60;78.70;;;;;;5054913;28;20035;-86
2021/12/12 13:11:22;;;;;;;0.00;0.00;;;5.60;78.80;;;;;;5054337;28;20051;-85
2021/12/12 13:13:57;;;;;;;0.00;0.00;;;5.50;78.60;;;;;;5054902;28;20389;-88
2021/12/12 13:16:56;;;;;;;0.00;0.00;;;5.50;79.00;;;;;;5055689;28;20017;-86
2021/12/12 13:19:38;;;;;;;0.00;0.00;;;5.50;79.10;;;;;;5054005;28;20036;-85
2021/12/12 13:22:44;;;;;;;0.00;0.00;;;5.60;79.00;;;;;;5054945;28;20035;-87
2021/12/12 13:25:17;;;;;;;0.00;0.00;;;5.50;78.90;;;;;;5051614;28;20056;-85
2021/12/12 13:28:06;;;;;;;0.00;0.00;;;5.50;78.70;;;;;;5054314;28;20033;-86
2021/12/12 13:31:01;;;;;;;0.00;0.00;;;5.40;78.80;;;;;;5053657;28;20037;-85
2021/12/12 13:33:43;;;;;;;0.00;0.00;;;5.40;78.70;;;;;;5052530;28;20124;-87
2021/12/12 13:36:39;;;;;;;0.00;0.00;;;5.50;78.90;;;;;;5055448;28;20041;-86
2021/12/12 13:39:27;;;;;;;0.00;0.00;;;5.40;78.40;;;;;;5056769;28;20021;-86
2021/12/12 13:41:59;;;;;;;0.08;0.08;;;5.40;78.50;;;;;;5058442;28;20376;-86
2021/12/12 13:44:41;;;;;;;0.00;0.00;;;5.30;78.40;;;;;;5055822;28;20037;-84
2021/12/12 13:47:23;;;;;;;0.00;0.00;;;5.30;78.50;;;;;;5058168;28;20074;-86
2021/12/12 13:50:12;;;;;;;0.13;0.00;;;5.20;78.80;;;;;;5054183;28;20021;-87
2021/12/12 13:52:38;;;;;;;0.10;0.10;;;5.20;79.40;;;;;;5055542;28;20025;-87
2021/12/12 13:55:19;;;;;;;0.10;0.10;;;5.20;79.30;;;;;;5056347;28;20039;-88
2021/12/12 13:57:51;;;;;;;0.00;0.00;;;5.30;79.50;;;;;;5056248;28;20029;-85
2021/12/12 14:00:30;;;;;;;0.10;0.10;;;5.30;79.50;;;;;;5056535;28;20021;-85